Accueil
METAR-TAF:

METAR-TAF

Aéroports :

McKinley Park, Alaska, États-Unis

latitude: 63-44N, longitude: 148-55W, altitude: 524 m

Observation

Le bulletin a été fait il y a 1 heure et 14 minutes, à 09:56 UTC
Vent 5 kt de sud-ouest
Température 1°C
Humidité 69%
Pression 986 hPa
Visibilité: 16.1 km
Nuages épars à une hauteur de 5500 ft

METAR: PAIN 110956Z AUTO 22005KT 10SM SCT055 01/M04 A2913 RMK AO2 SLP888 T00111044 FZRANO

Heure: 02:10 (11:10 UTC)


TAF: absent

Observations et prévisions météorologiques de plus de 4000 aéroports (messages METAR et TAF).

Les stations disponibles sont représentées par des disques jaunes et rouges sur la carte.

Passer la souris dessus pour voir le nom de la station.

Cliquer dessus pour voir les observations et prévisions météorologiques.

Pour changer de carte: cliquez sur les boutons verts avec une croix noire pour zoomer, sur le bouton vert avec un tiret pour effectuer un zoom arrière, ou sur les flèches vertes pour les cartes adjacentes.


METAR-TAF: